createdAt,value
2018-04-19T00:00:52.096Z,95.80
2018-04-19T00:03:19.569Z,96.00
2018-04-19T00:05:47.796Z,96.30
2018-04-19T00:08:15.266Z,96.40
2018-04-19T00:10:42.755Z,96.70
2018-04-19T00:13:10.410Z,96.80
2018-04-19T00:15:37.875Z,97.00
2018-04-19T00:18:06.131Z,96.50
2018-04-19T00:20:33.601Z,96.50
2018-04-19T00:23:01.874Z,96.90
2018-04-19T00:25:29.400Z,96.80
2018-04-19T00:27:56.898Z,96.90
2018-04-19T00:30:24.367Z,96.30
2018-04-19T00:32:52.711Z,96.60
2018-04-19T00:35:20.993Z,96.50
2018-04-19T00:37:48.463Z,96.50
2018-04-19T00:40:15.937Z,96.70
2018-04-19T00:42:43.791Z,96.60
2018-04-19T00:45:11.261Z,96.20
2018-04-19T00:47:39.496Z,92.90
2018-04-19T00:50:06.978Z,92.90
2018-04-19T00:52:46.329Z,92.30
2018-04-19T00:55:14.580Z,91.80
2018-04-19T00:57:42.079Z,91.80
2018-04-19T01:00:09.575Z,91.50
2018-04-19T01:02:37.032Z,91.20
2018-04-19T01:05:04.828Z,91.20
2018-04-19T01:07:33.079Z,90.60
2018-04-19T01:10:00.534Z,90.60
2018-04-19T01:12:28.015Z,90.60
2018-04-19T01:14:56.268Z,92.30
2018-04-19T01:17:23.753Z,92.00
2018-04-19T01:19:52.037Z,92.10
2018-04-19T01:22:20.276Z,92.00
2018-04-19T01:24:47.803Z,92.00
2018-04-19T01:27:15.281Z,92.60
2018-04-19T01:29:42.755Z,92.90
2018-04-19T01:32:10.296Z,92.40
2018-04-19T01:34:37.756Z,92.10
2018-04-19T01:37:05.232Z,92.10
2018-04-19T01:39:32.713Z,92.40
2018-04-19T01:42:00.934Z,93.50
2018-04-19T01:44:28.428Z,93.50
2018-04-19T01:46:55.884Z,93.90
2018-04-19T01:49:23.356Z,94.70
2018-04-19T01:51:51.590Z,95.30
2018-04-19T01:54:19.075Z,95.30
2018-04-19T01:56:46.661Z,95.60
2018-04-19T01:59:14.249Z,96.40
2018-04-19T02:01:41.722Z,96.20
2018-04-19T02:04:09.227Z,96.40
2018-04-19T02:06:37.460Z,96.70
2018-04-19T02:09:05.773Z,96.70
2018-04-19T02:11:33.996Z,96.60
2018-04-19T02:14:01.481Z,96.60
2018-04-19T02:16:28.965Z,95.70
2018-04-19T02:18:57.253Z,95.60
2018-04-19T02:21:24.747Z,95.60
2018-04-19T02:23:52.227Z,95.50
2018-04-19T02:26:20.480Z,93.80
2018-04-19T02:28:47.948Z,93.80
2018-04-19T02:31:15.445Z,94.30
2018-04-19T02:33:43.689Z,94.20
2018-04-19T02:36:11.374Z,94.20
2018-04-19T02:38:38.825Z,94.10
2018-04-19T02:41:07.084Z,93.50
2018-04-19T02:43:34.555Z,93.20
2018-04-19T02:46:03.553Z,93.30
2018-04-19T02:48:31.873Z,92.60
2018-04-19T02:50:59.348Z,92.60
2018-04-19T02:53:26.825Z,92.30
2018-04-19T02:55:54.280Z,92.30
2018-04-19T02:58:21.761Z,91.90
2018-04-19T03:00:49.241Z,92.20
2018-04-19T03:03:17.481Z,93.80
2018-04-19T03:05:44.949Z,93.70
2018-04-19T03:08:12.436Z,92.90
2018-04-19T03:10:40.063Z,92.20
2018-04-19T03:13:08.287Z,92.30
2018-04-19T03:15:35.787Z,92.30
2018-04-19T03:18:04.052Z,92.50
2018-04-19T03:20:31.507Z,92.50
2018-04-19T03:22:58.992Z,92.50
2018-04-19T03:25:26.459Z,92.80
2018-04-19T03:27:55.032Z,93.10
2018-04-19T03:30:22.503Z,93.10
2018-04-19T03:32:50.755Z,93.40
2018-04-19T03:35:18.263Z,93.40
2018-04-19T03:37:45.726Z,93.50
2018-04-19T03:40:13.211Z,93.80
2018-04-19T03:42:40.684Z,93.70
2018-04-19T03:45:09.668Z,93.80
2018-04-19T03:47:37.904Z,94.10
2018-04-19T03:50:05.375Z,94.10
2018-04-19T03:52:32.882Z,94.10
2018-04-19T03:55:01.145Z,94.60
2018-04-19T03:57:28.612Z,94.60
2018-04-19T03:59:56.216Z,94.70
2018-04-19T04:02:23.721Z,95.10
2018-04-19T04:04:51.192Z,95.40
2018-04-19T04:07:19.423Z,96.00
2018-04-19T04:09:46.901Z,96.00
2018-04-19T04:12:15.870Z,96.30
2018-04-19T04:14:43.350Z,96.30
2018-04-19T04:17:24.280Z,96.40
2018-04-19T04:20:03.899Z,96.40
2018-04-19T04:22:43.330Z,96.60
2018-04-19T04:25:11.591Z,96.90
2018-04-19T04:27:39.089Z,96.90
2018-04-19T04:30:06.576Z,97.10
2018-04-19T04:32:35.016Z,97.10
2018-04-19T04:35:03.259Z,97.10
2018-04-19T04:37:30.727Z,97.10
2018-04-19T04:39:59.068Z,97.00
2018-04-19T04:42:26.563Z,97.00
2018-04-19T04:44:54.817Z,97.30
2018-04-19T04:47:22.286Z,97.30
2018-04-19T04:49:49.744Z,97.60
2018-04-19T04:52:18.019Z,97.70
2018-04-19T04:54:45.475Z,97.60
2018-04-19T04:57:12.968Z,97.80
2018-04-19T04:59:40.446Z,98.10
2018-04-19T05:02:07.914Z,98.40
2018-04-19T05:04:35.392Z,98.50
2018-04-19T05:07:02.867Z,98.60
2018-04-19T05:09:31.103Z,98.80
2018-04-19T05:11:58.671Z,98.80
2018-04-19T05:14:26.166Z,98.80
2018-04-19T05:16:54.415Z,98.90
2018-04-19T05:19:21.902Z,98.90
2018-04-19T05:21:50.132Z,98.60
2018-04-19T05:24:17.627Z,98.60
2018-04-19T05:26:45.134Z,98.40
2018-04-19T05:29:12.595Z,98.40
2018-04-19T05:31:40.255Z,98.40
2018-04-19T05:34:07.746Z,98.30
2018-04-19T05:36:36.020Z,98.10
2018-04-19T05:39:04.272Z,98.00
2018-04-19T05:41:31.733Z,98.10
2018-04-19T05:43:59.214Z,97.90
2018-04-19T05:46:26.669Z,97.90
2018-04-19T05:48:54.156Z,97.80
2018-04-19T05:51:21.632Z,98.00
2018-04-19T05:53:49.136Z,97.50
2018-04-19T05:56:16.599Z,97.40
2018-04-19T05:58:44.101Z,97.10
2018-04-19T06:01:11.624Z,96.90
2018-04-19T06:03:39.886Z,96.40
2018-04-19T06:06:08.127Z,96.40
2018-04-19T06:08:35.611Z,96.40
2018-04-19T06:11:03.099Z,96.50
2018-04-19T06:13:31.338Z,96.60
2018-04-19T06:15:59.214Z,96.30
2018-04-19T06:18:26.703Z,95.90
2018-04-19T06:20:54.955Z,95.80
2018-04-19T06:23:22.427Z,95.80
2018-04-19T06:25:50.679Z,95.10
2018-04-19T06:28:18.167Z,95.00
2018-04-19T06:30:45.655Z,94.90
2018-04-19T06:33:13.123Z,94.60
2018-04-19T06:35:40.609Z,94.40
2018-04-19T06:38:08.084Z,94.20
2018-04-19T06:40:36.310Z,93.80
2018-04-19T06:43:03.853Z,93.80
2018-04-19T06:45:32.078Z,93.30
2018-04-19T06:47:59.901Z,93.20
2018-04-19T06:50:27.451Z,92.90
2018-04-19T06:52:54.914Z,92.80
2018-04-19T06:55:22.386Z,92.10
2018-04-19T06:57:49.869Z,91.60
2018-04-19T07:00:17.348Z,91.80
2018-04-19T07:02:45.663Z,90.90
2018-04-19T07:05:13.135Z,90.90
2018-04-19T07:07:40.630Z,90.90
2018-04-19T07:10:08.147Z,91.10
2018-04-19T07:12:35.611Z,90.80
2018-04-19T07:15:03.112Z,90.10
2018-04-19T07:17:31.345Z,89.40
2018-04-19T07:19:58.828Z,89.40
2018-04-19T07:22:26.302Z,88.00
2018-04-19T07:24:54.576Z,88.30
2018-04-19T07:27:22.044Z,88.20
2018-04-19T07:29:50.312Z,86.80
2018-04-19T07:32:18.595Z,87.30
2018-04-19T07:34:46.255Z,87.30
2018-04-19T07:37:14.518Z,87.50
2018-04-19T07:39:41.991Z,86.70
2018-04-19T07:42:09.485Z,85.40
2018-04-19T07:44:36.971Z,84.50
2018-04-19T07:47:04.500Z,84.70
2018-04-19T07:49:31.964Z,84.10
2018-04-19T07:51:59.447Z,83.50
2018-04-19T07:54:26.938Z,83.80
2018-04-19T07:56:55.303Z,81.20
2018-04-19T07:59:23.762Z,81.70
2018-04-19T08:01:51.257Z,81.60
2018-04-19T08:04:19.484Z,80.90
2018-04-19T08:06:46.965Z,80.80
2018-04-19T08:09:14.436Z,80.50
2018-04-19T08:11:42.687Z,77.90
2018-04-19T08:14:10.190Z,77.90
2018-04-19T08:16:37.747Z,75.60
2018-04-19T08:19:05.250Z,75.30
2018-04-19T08:21:32.744Z,74.60
2018-04-19T08:24:00.991Z,71.50
2018-04-19T08:26:28.465Z,71.30
2018-04-19T08:28:56.731Z,67.10
2018-04-19T08:31:24.188Z,67.10
2018-04-19T08:33:51.671Z,68.20
2018-04-19T08:36:19.131Z,67.40
2018-04-19T08:38:46.637Z,65.40
2018-04-19T08:41:14.117Z,64.90
2018-04-19T08:43:41.729Z,64.10
2018-04-19T08:46:09.195Z,61.70
2018-04-19T08:48:36.691Z,61.00
2018-04-19T08:51:04.967Z,59.80
2018-04-19T08:53:33.220Z,59.10
2018-04-19T08:56:00.703Z,59.50
2018-04-19T08:58:28.163Z,58.60
2018-04-19T09:00:56.416Z,60.00
2018-04-19T09:03:23.892Z,59.60
2018-04-19T09:05:51.387Z,59.40
2018-04-19T09:08:18.856Z,57.50
2018-04-19T09:10:46.343Z,58.90
2018-04-19T09:13:13.819Z,58.20
2018-04-19T09:15:41.295Z,56.50
2018-04-19T09:18:09.547Z,57.00
2018-04-19T09:20:37.218Z,56.40
2018-04-19T09:23:04.864Z,56.40
2018-04-19T09:25:32.364Z,55.60
2018-04-19T09:27:59.855Z,55.00
2018-04-19T09:30:27.346Z,55.20
2018-04-19T09:32:54.817Z,53.60
2018-04-19T09:35:23.082Z,53.10
2018-04-19T09:37:50.543Z,53.00
2018-04-19T09:40:18.825Z,52.80
2018-04-19T09:42:47.093Z,52.30
2018-04-19T09:45:14.572Z,52.30
2018-04-19T09:47:42.878Z,51.20
2018-04-19T09:50:10.381Z,51.20
2018-04-19T09:52:37.990Z,50.80
2018-04-19T09:55:05.832Z,50.50
2018-04-19T09:57:34.081Z,48.00
2018-04-19T10:00:01.557Z,48.00
2018-04-19T10:02:29.823Z,48.40
2018-04-19T10:05:01.961Z,48.20
2018-04-19T10:07:29.436Z,48.20
2018-04-19T10:09:56.916Z,47.10
2018-04-19T10:12:25.178Z,45.50
2018-04-19T10:14:52.653Z,45.50
2018-04-19T10:17:20.906Z,46.00
2018-04-19T10:19:48.376Z,46.00
2018-04-19T10:22:16.641Z,45.00
2018-04-19T10:24:44.125Z,45.00
2018-04-19T10:27:12.368Z,43.70
2018-04-19T10:29:39.852Z,43.70
2018-04-19T10:32:08.130Z,44.80
2018-04-19T10:34:36.403Z,43.40
2018-04-19T10:37:04.659Z,42.40
2018-04-19T10:39:32.140Z,42.40
2018-04-19T10:42:00.588Z,42.60
2018-04-19T10:44:28.092Z,42.60
2018-04-19T10:46:55.577Z,42.30
2018-04-19T10:49:23.072Z,41.80
2018-04-19T10:51:51.303Z,43.00
2018-04-19T10:54:18.793Z,43.00
2018-04-19T10:56:46.270Z,42.70
2018-04-19T10:59:14.513Z,41.80
2018-04-19T11:01:41.973Z,41.80
2018-04-19T11:04:09.468Z,42.20
2018-04-19T11:06:37.710Z,41.70
2018-04-19T11:09:05.179Z,41.70
2018-04-19T11:11:32.704Z,42.00
2018-04-19T11:14:00.167Z,40.60
2018-04-19T11:16:27.635Z,42.40
2018-04-19T11:18:55.263Z,40.00
2018-04-19T11:21:22.772Z,40.80
2018-04-19T11:23:50.246Z,42.30
2018-04-19T11:26:18.475Z,40.00
2018-04-19T11:28:46.023Z,39.90
2018-04-19T11:31:13.688Z,39.60
2018-04-19T11:33:41.165Z,39.10
2018-04-19T11:36:09.120Z,40.40
2018-04-19T11:38:36.627Z,40.40
2018-04-19T11:41:04.861Z,40.20
2018-04-19T11:43:32.336Z,40.30
2018-04-19T11:45:59.834Z,40.30
2018-04-19T11:48:27.320Z,38.80
2018-04-19T11:50:54.804Z,38.50
2018-04-19T11:53:22.310Z,38.80
2018-04-19T11:55:49.780Z,38.70
2018-04-19T11:58:17.256Z,37.60
2018-04-19T12:00:44.744Z,36.90
2018-04-19T12:03:12.995Z,36.90
2018-04-19T12:05:40.486Z,36.90
2018-04-19T12:08:09.142Z,36.00
2018-04-19T12:10:37.179Z,36.00
2018-04-19T12:13:04.681Z,36.80
2018-04-19T12:15:32.245Z,35.10
2018-04-19T12:17:59.751Z,35.00
2018-04-19T12:20:31.453Z,34.70
2018-04-19T12:22:58.906Z,34.30
2018-04-19T12:25:26.416Z,36.00
2018-04-19T12:27:53.885Z,34.00
2018-04-19T12:30:21.439Z,33.10
2018-04-19T12:32:48.928Z,34.00
2018-04-19T12:35:16.413Z,34.10
2018-04-19T12:37:44.691Z,33.10
2018-04-19T12:40:12.959Z,33.00
2018-04-19T12:42:41.203Z,33.70
2018-04-19T12:45:08.684Z,33.10
2018-04-19T12:47:36.155Z,33.90
2018-04-19T12:50:04.406Z,32.60
2018-04-19T12:52:31.873Z,32.50
2018-04-19T12:54:59.356Z,33.60
2018-04-19T12:57:27.615Z,32.80
2018-04-19T12:59:55.879Z,33.10
2018-04-19T13:02:23.343Z,33.00
2018-04-19T13:04:50.822Z,33.40
2018-04-19T13:07:19.079Z,32.70
2018-04-19T13:09:47.464Z,32.70
2018-04-19T13:12:15.688Z,32.20
2018-04-19T13:14:43.221Z,32.10
2018-04-19T13:17:10.817Z,30.40
2018-04-19T13:19:38.591Z,30.60
2018-04-19T13:22:06.070Z,31.00
2018-04-19T13:24:33.553Z,30.30
2018-04-19T13:27:01.032Z,31.00
2018-04-19T13:29:28.514Z,31.20
2018-04-19T13:31:56.028Z,31.70
2018-04-19T13:34:23.507Z,31.50
2018-04-19T13:36:50.992Z,30.00
2018-04-19T13:39:18.474Z,30.80
2018-04-19T13:41:45.980Z,30.60
2018-04-19T13:44:13.892Z,30.70
2018-04-19T13:46:42.152Z,31.10
2018-04-19T13:49:09.607Z,31.10
2018-04-19T13:51:37.089Z,30.10
2018-04-19T13:54:04.554Z,30.60
2018-04-19T13:56:32.840Z,30.80
2018-04-19T13:59:00.316Z,30.80
2018-04-19T14:01:27.805Z,30.70
2018-04-19T14:03:55.268Z,30.00
2018-04-19T14:06:22.763Z,30.70
2018-04-19T14:08:51.000Z,30.40
2018-04-19T14:11:18.561Z,30.30
2018-04-19T14:13:46.027Z,30.70
2018-04-19T14:16:13.888Z,30.80
2018-04-19T14:18:41.357Z,30.30
2018-04-19T14:21:08.834Z,30.00
2018-04-19T14:23:37.079Z,30.50
2018-04-19T14:26:04.553Z,30.40
2018-04-19T14:28:32.155Z,31.10
2018-04-19T14:30:59.650Z,30.40
2018-04-19T14:33:27.144Z,30.10
2018-04-19T14:35:55.390Z,30.20
2018-04-19T14:38:22.897Z,30.10
2018-04-19T14:40:50.364Z,29.70
2018-04-19T14:43:17.848Z,29.20
2018-04-19T14:45:45.316Z,30.20
2018-04-19T14:48:12.799Z,29.60
2018-04-19T14:50:41.093Z,30.50
2018-04-19T14:53:09.349Z,29.60
2018-04-19T14:55:36.812Z,29.60
2018-04-19T14:58:05.052Z,30.50
2018-04-19T15:00:32.511Z,30.50
2018-04-19T15:03:00.137Z,30.60
2018-04-19T15:05:28.369Z,31.10
2018-04-19T15:07:56.600Z,31.20
2018-04-19T15:10:24.150Z,31.00
2018-04-19T15:12:51.651Z,31.40
2018-04-19T15:15:19.149Z,31.00
2018-04-19T15:17:46.631Z,30.40
2018-04-19T15:20:14.109Z,30.60
2018-04-19T15:22:41.579Z,30.40
2018-04-19T15:25:09.043Z,31.10
2018-04-19T15:27:36.504Z,31.00
2018-04-19T15:30:04.789Z,31.00
2018-04-19T15:32:33.048Z,30.50
2018-04-19T15:35:00.539Z,30.50
2018-04-19T15:37:28.116Z,30.50
2018-04-19T15:39:55.599Z,31.30
2018-04-19T15:42:23.068Z,32.00
2018-04-19T15:44:50.549Z,31.70
2018-04-19T15:47:19.314Z,31.10
2018-04-19T15:49:46.821Z,31.00
2018-04-19T15:52:14.296Z,31.40
2018-04-19T15:54:41.780Z,31.40
2018-04-19T15:57:09.251Z,32.00
2018-04-19T15:59:36.724Z,32.40
2018-04-19T16:02:05.021Z,32.40
2018-04-19T16:04:32.448Z,32.40
2018-04-19T16:06:59.951Z,32.30
2018-04-19T16:09:27.510Z,32.90
2018-04-19T16:11:54.976Z,33.40
2018-04-19T16:14:22.443Z,32.90
2018-04-19T16:16:49.946Z,33.10
2018-04-19T16:19:17.619Z,33.50
2018-04-19T16:21:45.259Z,33.90
2018-04-19T16:24:12.712Z,33.30
2018-04-19T16:26:40.367Z,34.20
2018-04-19T16:29:07.867Z,32.70
2018-04-19T16:31:35.491Z,33.30
2018-04-19T16:34:02.964Z,32.90
2018-04-19T16:36:31.273Z,33.70
2018-04-19T16:38:58.774Z,34.20
2018-04-19T16:41:26.253Z,32.80
2018-04-19T16:43:54.522Z,34.20
2018-04-19T16:46:22.361Z,34.30
2018-04-19T16:48:49.848Z,34.40
2018-04-19T16:51:18.139Z,34.50
2018-04-19T16:53:46.401Z,33.20
2018-04-19T16:56:14.662Z,33.50
2018-04-19T16:58:43.654Z,32.60
2018-04-19T17:01:11.177Z,32.60
2018-04-19T17:03:38.679Z,33.70
2018-04-19T17:06:06.200Z,33.40
2018-04-19T17:08:33.632Z,33.30
2018-04-19T17:11:01.115Z,34.50
2018-04-19T17:13:28.623Z,34.60
2018-04-19T17:15:56.924Z,34.70
2018-04-19T17:18:24.414Z,34.70
2018-04-19T17:20:51.879Z,35.10
2018-04-19T17:23:19.436Z,35.00
2018-04-19T17:25:46.912Z,35.10
2018-04-19T17:28:14.548Z,34.90
2018-04-19T17:30:42.128Z,35.70
2018-04-19T17:33:09.625Z,35.90
2018-04-19T17:35:37.138Z,35.80
2018-04-19T17:38:04.716Z,36.10
2018-04-19T17:40:32.961Z,36.70
2018-04-19T17:43:00.464Z,36.70
2018-04-19T17:45:27.955Z,36.10
2018-04-19T17:47:55.410Z,35.70
2018-04-19T17:50:23.143Z,35.60
2018-04-19T17:52:50.679Z,35.80
2018-04-19T17:55:18.153Z,35.80
2018-04-19T17:57:45.752Z,36.00
2018-04-19T18:00:13.232Z,35.80
2018-04-19T18:02:41.166Z,36.00
2018-04-19T18:05:08.655Z,35.60
2018-04-19T18:07:36.361Z,35.90
2018-04-19T18:10:04.633Z,36.20
2018-04-19T18:12:32.880Z,35.90
2018-04-19T18:15:00.352Z,35.90
2018-04-19T18:17:27.877Z,36.00
2018-04-19T18:19:55.375Z,36.10
2018-04-19T18:22:23.848Z,36.30
2018-04-19T18:24:52.091Z,36.80
2018-04-19T18:27:19.584Z,36.70
2018-04-19T18:29:47.805Z,37.00
2018-04-19T18:32:15.278Z,36.90
2018-04-19T18:34:42.761Z,37.20
2018-04-19T18:37:10.223Z,37.70
2018-04-19T18:39:38.488Z,37.30
2018-04-19T18:42:05.977Z,37.10
2018-04-19T18:44:34.386Z,37.80
2018-04-19T18:47:01.896Z,37.80
2018-04-19T18:49:29.371Z,37.80
2018-04-19T18:51:57.652Z,38.70
2018-04-19T18:54:25.250Z,38.70
2018-04-19T18:56:52.739Z,39.10
2018-04-19T18:59:20.211Z,39.40
2018-04-19T19:01:48.481Z,39.50
2018-04-19T19:04:16.157Z,39.50
2018-04-19T19:06:44.403Z,39.50
2018-04-19T19:09:11.931Z,39.40
2018-04-19T19:11:39.405Z,39.50
2018-04-19T19:14:06.912Z,39.60
2018-04-19T19:16:35.137Z,40.10
2018-04-19T19:19:14.665Z,40.10
2018-04-19T19:21:42.178Z,39.80
2018-04-19T19:24:10.512Z,39.90
2018-04-19T19:26:38.894Z,39.80
2018-04-19T19:29:06.438Z,40.30
2018-04-19T19:31:33.949Z,41.70
2018-04-19T19:34:02.229Z,41.60
2018-04-19T19:36:30.492Z,41.00
2018-04-19T19:38:58.786Z,40.80
2018-04-19T19:41:26.940Z,40.70
2018-04-19T19:43:54.753Z,40.70
2018-04-19T19:46:22.292Z,40.80
2018-04-19T19:48:49.803Z,40.90
2018-04-19T19:51:18.108Z,41.40
2018-04-19T19:53:45.941Z,41.40
2018-04-19T19:56:13.485Z,41.30
2018-04-19T19:58:41.309Z,41.00
2018-04-19T20:01:08.820Z,40.80
2018-04-19T20:03:36.309Z,40.90
2018-04-19T20:06:04.630Z,41.10
2018-04-19T20:08:32.262Z,41.10
2018-04-19T20:11:00.583Z,42.20
2018-04-19T20:13:28.476Z,42.20
2018-04-19T20:15:55.962Z,42.70
2018-04-19T20:18:23.626Z,43.10
2018-04-19T20:20:51.127Z,42.70
2018-04-19T20:23:22.713Z,43.10
2018-04-19T20:25:50.968Z,42.90
2018-04-19T20:28:18.516Z,42.90
2018-04-19T20:30:46.067Z,43.00
2018-04-19T20:33:13.582Z,43.50
2018-04-19T20:35:41.871Z,43.70
2018-04-19T20:38:10.190Z,44.20
2018-04-19T20:40:37.825Z,44.20
2018-04-19T20:43:05.452Z,44.80
2018-04-19T20:45:33.740Z,44.70
2018-04-19T20:48:01.270Z,44.70
2018-04-19T20:50:28.810Z,46.00
2018-04-19T20:52:56.357Z,45.70
2018-04-19T20:55:23.926Z,45.90
2018-04-19T20:57:51.518Z,46.10
2018-04-19T21:00:19.769Z,46.90
2018-04-19T21:02:47.322Z,46.30
2018-04-19T21:05:14.858Z,47.40
2018-04-19T21:07:42.368Z,47.50
2018-04-19T21:10:09.843Z,47.80
2018-04-19T21:12:37.359Z,48.20
2018-04-19T21:15:04.905Z,48.40
2018-04-19T21:17:32.752Z,48.30
2018-04-19T21:20:00.250Z,48.00
2018-04-19T21:22:27.751Z,47.30
2018-04-19T21:24:55.238Z,47.70
2018-04-19T21:27:22.708Z,47.50
2018-04-19T21:29:50.184Z,47.60
2018-04-19T21:32:17.689Z,47.50
2018-04-19T21:34:45.261Z,47.70
2018-04-19T21:37:12.739Z,48.30
2018-04-19T21:39:41.189Z,48.50
2018-04-19T21:42:08.689Z,48.80
2018-04-19T21:44:36.937Z,50.00
2018-04-19T21:47:04.418Z,50.00
2018-04-19T21:49:32.444Z,49.80
2018-04-19T21:51:59.923Z,51.80
2018-04-19T21:54:27.421Z,52.20
2018-04-19T21:56:54.889Z,51.70
2018-04-19T21:59:23.120Z,50.80
2018-04-19T22:01:50.593Z,50.70
2018-04-19T22:04:18.891Z,50.90
2018-04-19T22:06:46.359Z,50.80
2018-04-19T22:09:14.591Z,50.80
2018-04-19T22:11:42.064Z,50.80
2018-04-19T22:14:09.535Z,53.10
2018-04-19T22:16:37.780Z,55.30
2018-04-19T22:19:05.328Z,55.30
2018-04-19T22:21:33.048Z,54.30
2018-04-19T22:24:01.404Z,53.00
2018-04-19T22:26:28.863Z,53.10
2018-04-19T22:28:57.113Z,51.90
2018-04-19T22:31:24.625Z,51.90
2018-04-19T22:33:52.108Z,51.50
2018-04-19T22:36:19.591Z,51.30
2018-04-19T22:38:47.059Z,51.10
2018-04-19T22:41:14.533Z,50.60
2018-04-19T22:43:42.772Z,50.90
2018-04-19T22:46:10.251Z,50.90
2018-04-19T22:48:38.488Z,51.80
2018-04-19T22:51:05.947Z,51.30
2018-04-19T22:53:33.581Z,51.70
2018-04-19T22:56:01.058Z,51.80
2018-04-19T22:58:28.524Z,52.10
2018-04-19T23:00:56.011Z,52.20
2018-04-19T23:03:23.472Z,52.40
2018-04-19T23:05:51.722Z,52.90
2018-04-19T23:08:19.201Z,52.90
2018-04-19T23:13:15.502Z,53.30
2018-04-19T23:15:42.996Z,53.00
2018-04-19T23:18:10.456Z,53.10
2018-04-19T23:20:38.712Z,53.10
2018-04-19T23:23:06.235Z,53.10
2018-04-19T23:25:33.758Z,53.10
2018-04-19T23:28:01.442Z,53.10
2018-04-19T23:30:28.940Z,52.90
2018-04-19T23:32:56.405Z,52.50
2018-04-19T23:35:23.858Z,52.30
2018-04-19T23:37:51.337Z,51.70
2018-04-19T23:40:18.789Z,51.70
2018-04-19T23:42:46.259Z,51.40
2018-04-19T23:45:14.504Z,52.10
2018-04-19T23:47:41.988Z,52.10
2018-04-19T23:50:09.457Z,52.30
2018-04-19T23:52:37.430Z,53.30
2018-04-19T23:55:04.891Z,53.60
2018-04-19T23:57:33.152Z,54.80
